createdAt,value
2022-08-28T00:00:15.753Z,96877.38
2022-08-28T00:02:43.303Z,96874.03
2022-08-28T00:05:11.617Z,96877.34
2022-08-28T00:07:38.851Z,96875.81
2022-08-28T00:10:08.245Z,96880.63
2022-08-28T00:12:35.636Z,96877.50
2022-08-28T00:15:06.295Z,96879.72
2022-08-28T00:17:36.535Z,96871.72
2022-08-28T00:20:07.665Z,96876.34
2022-08-28T00:22:34.232Z,96876.34
2022-08-28T00:25:00.756Z,96868.38
2022-08-28T00:27:45.490Z,96881.00
2022-08-28T00:30:12.169Z,96877.34
2022-08-28T00:32:38.736Z,96886.69
2022-08-28T00:35:05.392Z,96884.34
2022-08-28T00:37:32.009Z,96883.53
2022-08-28T00:39:58.604Z,96889.19
2022-08-28T00:42:25.214Z,96891.38
2022-08-28T00:44:51.756Z,96881.75
2022-08-28T00:47:18.572Z,96885.44
2022-08-28T00:49:52.810Z,96879.75
2022-08-28T00:52:21.701Z,96875.06
2022-08-28T00:54:59.064Z,96871.91
2022-08-28T00:57:41.004Z,96880.56
2022-08-28T01:00:21.464Z,96880.03
2022-08-28T01:02:48.244Z,96889.56
2022-08-28T01:05:16.517Z,96885.38
2022-08-28T01:07:44.554Z,96882.72
2022-08-28T01:10:15.461Z,96878.88
2022-08-28T01:12:42.341Z,96872.91
2022-08-28T01:15:14.374Z,96876.38
2022-08-28T01:17:46.397Z,96879.91
2022-08-28T01:20:18.606Z,96873.44
2022-08-28T01:22:59.229Z,96872.03
2022-08-28T01:25:30.681Z,96876.22
2022-08-28T01:27:58.385Z,96868.41
2022-08-28T01:30:25.326Z,96877.69
2022-08-28T01:32:54.548Z,96872.38
2022-08-28T01:35:28.516Z,96869.53
2022-08-28T01:37:55.976Z,96877.88
2022-08-28T01:40:38.756Z,96874.69
2022-08-28T01:43:11.829Z,96882.72
2022-08-28T01:45:41.695Z,96877.53
2022-08-28T01:48:08.705Z,96885.53
2022-08-28T01:50:36.101Z,96885.06
2022-08-28T01:53:04.929Z,96887.25
2022-08-28T01:55:35.712Z,96890.75
2022-08-28T01:58:05.612Z,96889.91
2022-08-28T02:00:32.323Z,96890.75
2022-08-28T02:03:00.900Z,96890.94
2022-08-28T02:05:31.063Z,96886.44
2022-08-28T02:07:58.924Z,96888.41
2022-08-28T02:10:27.275Z,96890.75
2022-08-28T02:12:55.773Z,96889.41
2022-08-28T02:15:27.267Z,96893.44
2022-08-28T02:17:54.233Z,96889.91
2022-08-28T02:20:21.188Z,96882.25
2022-08-28T02:22:48.344Z,96880.09
2022-08-28T02:25:15.076Z,96886.59
2022-08-28T02:27:41.692Z,96894.25
2022-08-28T02:30:11.683Z,96887.25
2022-08-28T02:32:38.435Z,96882.59
2022-08-28T02:35:06.942Z,96890.06
2022-08-28T02:37:39.694Z,96891.44
2022-08-28T02:40:07.037Z,96884.94
2022-08-28T02:42:33.627Z,96887.31
2022-08-28T02:45:00.961Z,96886.81
2022-08-28T02:47:27.627Z,96884.16
2022-08-28T02:49:54.143Z,96888.50
2022-08-28T02:52:21.864Z,96894.81
2022-08-28T02:54:48.545Z,96885.31
2022-08-28T02:57:15.267Z,96886.00
2022-08-28T02:59:43.376Z,96889.81
2022-08-28T03:02:10.172Z,96890.00
2022-08-28T03:04:37.739Z,96893.28
2022-08-28T03:07:11.733Z,96886.44
2022-08-28T03:09:38.333Z,96884.28
2022-08-28T03:12:05.032Z,96884.16
2022-08-28T03:14:31.537Z,96876.97
2022-08-28T03:16:58.181Z,96880.13
2022-08-28T03:19:24.733Z,96883.47
2022-08-28T03:21:53.983Z,96883.78
2022-08-28T03:24:20.603Z,96885.47
2022-08-28T03:26:47.240Z,96876.31
2022-08-28T03:29:13.916Z,96872.78
2022-08-28T03:31:40.458Z,96880.31
2022-08-28T03:34:07.336Z,96881.31
2022-08-28T03:36:34.342Z,96886.66
2022-08-28T03:39:05.039Z,96889.47
2022-08-28T03:41:32.669Z,96892.78
2022-08-28T03:44:00.920Z,96892.94
2022-08-28T03:46:32.228Z,96902.94
2022-08-28T03:49:00.473Z,96897.13
2022-08-28T03:51:31.344Z,96896.47
2022-08-28T03:53:59.304Z,96900.63
2022-08-28T03:56:28.605Z,96907.25
2022-08-28T03:58:57.639Z,96910.28
2022-08-28T04:01:25.082Z,96905.06
2022-08-28T04:03:51.921Z,96905.75
2022-08-28T04:06:19.768Z,96908.56
2022-08-28T04:08:47.594Z,96911.56
2022-08-28T04:11:14.332Z,96916.56
2022-08-28T04:13:41.952Z,96920.72
2022-08-28T04:16:11.520Z,96913.06
2022-08-28T04:18:40.612Z,96912.72
2022-08-28T04:21:19.564Z,96916.88
2022-08-28T04:23:47.481Z,96915.06
2022-08-28T04:26:17.960Z,96917.88
2022-08-28T04:28:45.754Z,96922.06
2022-08-28T04:31:12.340Z,96920.38
2022-08-28T04:33:39.791Z,96918.88
2022-08-28T04:36:11.211Z,96922.69
2022-08-28T04:38:43.086Z,96923.03
2022-08-28T04:41:13.370Z,96921.91
2022-08-28T04:43:39.930Z,96928.06
2022-08-28T04:46:09.998Z,96927.22
2022-08-28T04:48:37.654Z,96924.88
2022-08-28T04:51:09.443Z,96923.41
2022-08-28T04:53:37.792Z,96927.41
2022-08-28T04:56:10.080Z,96933.09
2022-08-28T04:58:37.284Z,96932.56
2022-08-28T05:01:10.108Z,96929.44
2022-08-28T05:03:37.132Z,96932.25
2022-08-28T05:06:04.622Z,96930.09
2022-08-28T05:08:31.926Z,96932.81
2022-08-28T05:11:08.673Z,96931.31
2022-08-28T05:13:35.250Z,96937.00
2022-08-28T05:16:03.838Z,96933.47
2022-08-28T05:18:30.614Z,96932.16
2022-08-28T05:20:57.584Z,96944.66
2022-08-28T05:23:25.937Z,96939.50
2022-08-28T05:25:53.119Z,96939.50
2022-08-28T05:28:20.158Z,96942.66
2022-08-28T05:30:46.915Z,96944.03
2022-08-28T05:33:14.984Z,96945.19
2022-08-28T05:35:44.205Z,96947.06
2022-08-28T05:38:13.456Z,96947.72
2022-08-28T05:40:42.920Z,96949.56
2022-08-28T05:43:10.257Z,96947.72
2022-08-28T05:45:36.829Z,96954.78
2022-08-28T05:48:03.673Z,96955.75
2022-08-28T05:50:31.338Z,96954.22
2022-08-28T05:52:57.965Z,96960.72
2022-08-28T05:55:24.482Z,96957.94
2022-08-28T05:57:51.036Z,96953.25
2022-08-28T06:00:18.371Z,96962.63
2022-08-28T06:02:45.029Z,96958.66
2022-08-28T06:05:12.617Z,96967.50
2022-08-28T06:07:41.000Z,96963.97
2022-08-28T06:10:08.281Z,96956.53
2022-08-28T06:12:37.697Z,96962.03
2022-08-28T06:15:05.562Z,96963.72
2022-08-28T06:17:32.163Z,96964.56
2022-08-28T06:19:58.685Z,96966.44
2022-08-28T06:22:25.233Z,96966.44
2022-08-28T06:24:51.989Z,96967.78
2022-08-28T06:27:18.613Z,96971.78
2022-08-28T06:29:45.815Z,96970.47
2022-08-28T06:32:12.436Z,96969.31
2022-08-28T06:34:39.398Z,96973.16
2022-08-28T06:37:06.042Z,96973.34
2022-08-28T06:39:32.650Z,96969.00
2022-08-28T06:41:59.247Z,96979.88
2022-08-28T06:44:25.782Z,96978.03
2022-08-28T06:46:54.163Z,96976.38
2022-08-28T06:49:21.257Z,96974.53
2022-08-28T06:51:47.966Z,96982.38
2022-08-28T06:54:21.785Z,96974.19
2022-08-28T06:56:49.824Z,96986.06
2022-08-28T06:59:16.395Z,96984.22
2022-08-28T07:01:43.071Z,96978.72
2022-08-28T07:04:11.534Z,96992.41
2022-08-28T07:06:41.005Z,96993.75
2022-08-28T07:09:11.024Z,96991.38
2022-08-28T07:11:38.746Z,96999.38
2022-08-28T07:14:06.482Z,96994.22
2022-08-28T07:16:38.296Z,96992.03
2022-08-28T07:19:10.509Z,96994.03
2022-08-28T07:21:41.706Z,96998.78
2022-08-28T07:24:10.604Z,97005.97
2022-08-28T07:26:40.830Z,97005.78
2022-08-28T07:29:10.035Z,97004.16
2022-08-28T07:31:40.809Z,97007.63
2022-08-28T07:34:07.670Z,97014.31
2022-08-28T07:36:34.970Z,97014.50
2022-08-28T07:39:01.578Z,97004.47
2022-08-28T07:41:31.056Z,97012.63
2022-08-28T07:44:16.299Z,97009.28
2022-08-28T07:46:44.491Z,97010.94
2022-08-28T07:49:11.882Z,97019.94
2022-08-28T07:51:38.727Z,97023.44
2022-08-28T07:54:05.647Z,97024.84
2022-08-28T07:56:33.195Z,97026.63
2022-08-28T07:59:01.295Z,97028.13
2022-08-28T08:01:30.842Z,97029.47
2022-08-28T08:04:01.331Z,97025.28
2022-08-28T08:06:34.489Z,97037.47
2022-08-28T08:09:02.338Z,97038.47
2022-08-28T08:11:32.347Z,97042.53
2022-08-28T08:14:04.753Z,97037.19
2022-08-28T08:16:41.248Z,97043.56
2022-08-28T08:19:10.146Z,97042.22
2022-08-28T08:21:37.706Z,97039.91
2022-08-28T08:24:04.538Z,97043.38
2022-08-28T08:26:31.198Z,97046.91
2022-08-28T08:28:58.939Z,97041.38
2022-08-28T08:31:27.285Z,97051.41
2022-08-28T08:33:56.558Z,97050.22
2022-08-28T08:36:25.053Z,97045.03
2022-08-28T08:38:59.885Z,97054.41
2022-08-28T08:41:57.157Z,97054.75
2022-08-28T08:44:45.219Z,97058.59
2022-08-28T08:47:15.835Z,97063.09
2022-08-28T08:49:54.560Z,97061.09
2022-08-28T08:52:40.414Z,97065.28
2022-08-28T08:55:15.125Z,97069.72
2022-08-28T08:57:46.077Z,97066.19
2022-08-28T09:00:16.816Z,97067.81
2022-08-28T09:03:13.386Z,97074.88
2022-08-28T09:05:48.202Z,97069.00
2022-08-28T09:08:34.068Z,97070.06
2022-08-28T09:11:07.017Z,97073.41
2022-08-28T09:13:57.108Z,97075.75
2022-08-28T09:16:35.469Z,97070.81
2022-08-28T09:19:02.751Z,97078.75
2022-08-28T09:21:33.715Z,97074.34
2022-08-28T09:24:05.727Z,97072.94
2022-08-28T09:26:34.035Z,97077.16
2022-08-28T09:29:07.405Z,97081.69
2022-08-28T09:31:39.403Z,97079.41
2022-08-28T09:34:18.051Z,97079.66
2022-08-28T09:36:44.807Z,97081.28
2022-08-28T09:39:17.504Z,97085.25
2022-08-28T09:42:08.964Z,97082.00
2022-08-28T09:44:51.941Z,97083.44
2022-08-28T09:47:34.564Z,97079.50
2022-08-28T09:50:15.182Z,97082.53
2022-08-28T09:52:41.862Z,97086.97
2022-08-28T09:55:12.870Z,97083.25
2022-08-28T09:57:46.462Z,97080.16
2022-08-28T10:00:14.192Z,97083.03
2022-08-28T10:02:43.580Z,97088.38
2022-08-28T10:05:16.291Z,97087.84
2022-08-28T10:07:54.936Z,97084.06
2022-08-28T10:10:59.956Z,97083.97
2022-08-28T10:13:36.896Z,97085.84
2022-08-28T10:16:29.048Z,97089.31
2022-08-28T10:19:12.791Z,97087.75
2022-08-28T10:22:10.865Z,97087.16
2022-08-28T10:24:53.413Z,97092.91
2022-08-28T10:27:34.971Z,97093.09
2022-08-28T10:30:12.369Z,97092.28
2022-08-28T10:33:01.228Z,97090.72
2022-08-28T10:35:43.933Z,97089.09
2022-08-28T10:38:17.325Z,97086.66
2022-08-28T10:41:08.517Z,97093.47
2022-08-28T10:43:43.305Z,97089.91
2022-08-28T10:46:16.520Z,97092.47
2022-08-28T10:49:08.425Z,97080.84
2022-08-28T10:51:44.345Z,97084.69
2022-08-28T10:54:34.751Z,97086.34
2022-08-28T10:57:24.817Z,97089.19
2022-08-28T10:59:54.007Z,97085.56
2022-08-28T11:02:23.413Z,97083.78
2022-08-28T11:04:58.644Z,97093.53
2022-08-28T11:07:34.515Z,97096.63
2022-08-28T11:10:21.600Z,97087.06
2022-08-28T11:12:51.691Z,97097.25
2022-08-28T11:15:31.508Z,97107.50
2022-08-28T11:18:15.811Z,97112.59
2022-08-28T11:20:44.935Z,97115.09
2022-08-28T11:23:20.251Z,97114.75
2022-08-28T11:25:51.277Z,97116.69
2022-08-28T11:28:43.147Z,97120.19
2022-08-28T11:31:19.097Z,97120.91
2022-08-28T11:33:56.135Z,97116.72
2022-08-28T11:36:22.562Z,97115.72
2022-08-28T11:38:51.835Z,97118.56
2022-08-28T11:41:32.494Z,97135.53
2022-08-28T11:44:08.149Z,97133.00
2022-08-28T11:46:42.009Z,97128.47
2022-08-28T11:49:23.749Z,97126.66
2022-08-28T11:52:02.298Z,97133.78
2022-08-28T11:54:50.247Z,97134.41
2022-08-28T11:57:28.569Z,97130.72
2022-08-28T12:00:23.979Z,97131.03
2022-08-28T12:03:16.360Z,97126.13
2022-08-28T12:05:45.806Z,97131.34
2022-08-28T12:08:33.410Z,97129.91
2022-08-28T12:11:00.045Z,97129.47
2022-08-28T12:13:51.470Z,97121.69
2022-08-28T12:16:18.424Z,97124.03
2022-08-28T12:18:47.704Z,97126.38
2022-08-28T12:21:21.672Z,97126.19
2022-08-28T12:24:09.115Z,97122.44
2022-08-28T12:26:42.625Z,97125.16
2022-08-28T12:29:24.714Z,97127.13
2022-08-28T12:32:26.126Z,97119.00
2022-08-28T12:35:06.467Z,97121.13
2022-08-28T12:37:52.480Z,97114.91
2022-08-28T12:40:27.660Z,97118.31
2022-08-28T12:42:59.076Z,97121.22
2022-08-28T12:45:25.513Z,97123.13
2022-08-28T12:47:56.298Z,97121.53
2022-08-28T12:50:33.959Z,97121.53
2022-08-28T12:53:05.062Z,97129.06
2022-08-28T12:55:33.114Z,97126.50
2022-08-28T12:58:00.236Z,97130.47
2022-08-28T13:00:32.942Z,97127.50
2022-08-28T13:03:00.637Z,97127.78
2022-08-28T13:05:29.460Z,97124.94
2022-08-28T13:07:57.186Z,97124.56
2022-08-28T13:10:40.806Z,97124.81
2022-08-28T13:13:18.552Z,97125.09
2022-08-28T13:15:50.351Z,97119.16
2022-08-28T13:19:01.308Z,97117.06
2022-08-28T13:21:34.271Z,97125.69
2022-08-28T13:24:27.131Z,97114.44
2022-08-28T13:27:07.803Z,97116.50
2022-08-28T13:29:35.503Z,97117.50
2022-08-28T13:32:14.914Z,97113.00
2022-08-28T13:34:47.653Z,97117.91
2022-08-28T13:38:00.827Z,97113.53
2022-08-28T13:40:57.016Z,97115.97
2022-08-28T13:43:19.345Z,97114.72
2022-08-28T13:45:50.942Z,97114.94
2022-08-28T13:48:23.707Z,97115.53
2022-08-28T13:50:54.798Z,97120.44
2022-08-28T13:53:22.213Z,97122.34
2022-08-28T13:55:50.711Z,97118.50
2022-08-28T13:58:17.607Z,97123.03
2022-08-28T14:00:47.241Z,97127.38
2022-08-28T14:03:33.135Z,97130.66
2022-08-28T14:05:59.909Z,97141.78
2022-08-28T14:08:26.554Z,97138.00
2022-08-28T14:10:53.230Z,97139.81
2022-08-28T14:13:20.298Z,97140.22
2022-08-28T14:15:47.527Z,97141.88
2022-08-28T14:18:14.287Z,97135.91
2022-08-28T14:20:40.903Z,97135.72
2022-08-28T14:23:09.195Z,97130.16
2022-08-28T14:25:42.235Z,97126.81
2022-08-28T14:28:09.104Z,97126.72
2022-08-28T14:30:35.772Z,97121.88
2022-08-28T14:33:02.314Z,97125.41
2022-08-28T14:35:28.851Z,97129.13
2022-08-28T14:37:55.406Z,97125.88
2022-08-28T14:40:21.977Z,97129.66
2022-08-28T14:42:50.800Z,97129.06
2022-08-28T14:45:17.330Z,97121.00
2022-08-28T14:47:45.444Z,97125.38
2022-08-28T14:50:12.187Z,97124.28
2022-08-28T14:52:39.280Z,97120.66
2022-08-28T14:55:06.179Z,97121.25
2022-08-28T14:57:32.747Z,97125.59
2022-08-28T14:59:59.304Z,97117.41
2022-08-28T15:02:25.847Z,97125.69
2022-08-28T15:04:52.460Z,97127.78
2022-08-28T15:07:21.215Z,97126.16
2022-08-28T15:09:48.196Z,97131.03
2022-08-28T15:12:14.751Z,97127.66
2022-08-28T15:14:54.555Z,97130.94
2022-08-28T15:17:23.255Z,97134.53
2022-08-28T15:20:00.998Z,97145.44
2022-08-28T15:22:27.700Z,97146.66
2022-08-28T15:24:55.610Z,97145.03
2022-08-28T15:27:22.332Z,97151.91
2022-08-28T15:29:48.845Z,97147.53
2022-08-28T15:32:15.445Z,97150.44
2022-08-28T15:34:44.305Z,97136.81
2022-08-28T15:37:10.862Z,97138.97
2022-08-28T15:39:58.631Z,97136.13
2022-08-28T15:42:25.200Z,97128.44
2022-08-28T15:44:52.008Z,97130.09
2022-08-28T15:47:18.557Z,97129.44
2022-08-28T15:49:48.887Z,97132.47
2022-08-28T15:52:18.431Z,97140.31
2022-08-28T15:54:45.018Z,97142.66
2022-08-28T15:57:11.596Z,97139.31
2022-08-28T15:59:49.071Z,97139.66
2022-08-28T16:02:17.545Z,97148.84
2022-08-28T16:04:44.153Z,97147.66
2022-08-28T16:07:11.107Z,97145.81
2022-08-28T16:09:37.661Z,97141.47
2022-08-28T16:12:04.932Z,97145.44
2022-08-28T16:14:33.688Z,97151.28
2022-08-28T16:17:05.974Z,97140.25
2022-08-28T16:19:40.018Z,97149.47
2022-08-28T16:22:07.052Z,97145.78
2022-08-28T16:24:33.684Z,97153.16
2022-08-28T16:27:00.254Z,97147.81
2022-08-28T16:29:26.827Z,97142.28
2022-08-28T16:31:53.448Z,97143.44
2022-08-28T16:34:20.274Z,97146.59
2022-08-28T16:36:48.304Z,97146.75
2022-08-28T16:39:15.141Z,97141.59
2022-08-28T16:41:43.156Z,97136.75
2022-08-28T16:44:09.739Z,97138.09
2022-08-28T16:46:36.293Z,97139.25
2022-08-28T16:49:03.296Z,97134.91
2022-08-28T16:51:29.912Z,97139.06
2022-08-28T16:53:56.907Z,97144.88
2022-08-28T16:56:26.729Z,97144.06
2022-08-28T16:58:53.585Z,97157.41
2022-08-28T17:01:23.933Z,97162.84
2022-08-28T17:03:52.367Z,97160.69
2022-08-28T17:06:23.334Z,97156.56
2022-08-28T17:08:55.932Z,97154.81
2022-08-28T17:11:24.490Z,97154.47
2022-08-28T17:13:51.229Z,97149.13
2022-08-28T17:16:19.188Z,97151.63
2022-08-28T17:18:47.338Z,97162.09
2022-08-28T17:21:33.482Z,97159.78
2022-08-28T17:24:00.097Z,97157.94
2022-08-28T17:26:26.797Z,97156.28
2022-08-28T17:28:53.370Z,97160.66
2022-08-28T17:31:19.982Z,97162.16
2022-08-28T17:33:46.624Z,97160.78
2022-08-28T17:36:32.779Z,97164.31
2022-08-28T17:39:04.149Z,97175.66
2022-08-28T17:41:31.556Z,97182.13
2022-08-28T17:43:59.524Z,97182.91
2022-08-28T17:46:26.127Z,97181.56
2022-08-28T17:48:55.547Z,97189.03
2022-08-28T17:51:43.070Z,97189.50
2022-08-28T17:54:18.396Z,97190.94
2022-08-28T17:56:46.284Z,97193.59
2022-08-28T17:59:14.160Z,97194.41
2022-08-28T18:01:42.283Z,97210.88
2022-08-28T18:04:09.385Z,97206.84
2022-08-28T18:06:36.609Z,97209.34
2022-08-28T18:09:04.380Z,97214.84
2022-08-28T18:11:31.094Z,97215.47
2022-08-28T18:13:57.760Z,97210.63
2022-08-28T18:16:28.927Z,97220.03
2022-08-28T18:18:57.808Z,97221.72
2022-08-28T18:21:24.816Z,97222.34
2022-08-28T18:23:51.381Z,97228.53
2022-08-28T18:26:17.944Z,97229.50
2022-08-28T18:28:44.849Z,97233.00
2022-08-28T18:31:11.518Z,97236.81
2022-08-28T18:33:38.360Z,97242.69
2022-08-28T18:36:09.875Z,97235.22
2022-08-28T18:38:36.517Z,97238.28
2022-08-28T18:41:05.460Z,97239.78
2022-08-28T18:43:32.370Z,97240.13
2022-08-28T18:46:00.996Z,97230.72
2022-08-28T18:48:28.523Z,97243.38
2022-08-28T18:50:55.148Z,97245.34
2022-08-28T18:53:22.731Z,97247.03
2022-08-28T18:55:52.154Z,97243.81
2022-08-28T18:58:21.241Z,97238.94
2022-08-28T19:00:48.797Z,97234.59
2022-08-28T19:03:15.735Z,97236.88
2022-08-28T19:05:42.335Z,97239.47
2022-08-28T19:08:09.118Z,97243.28
2022-08-28T19:10:36.949Z,97243.88
2022-08-28T19:13:05.032Z,97248.53
2022-08-28T19:15:32.024Z,97243.66
2022-08-28T19:18:00.455Z,97251.25
2022-08-28T19:20:28.111Z,97256.75
2022-08-28T19:22:56.280Z,97257.88
2022-08-28T19:25:28.457Z,97262.81
2022-08-28T19:27:58.876Z,97259.75
2022-08-28T19:30:34.995Z,97262.72
2022-08-28T19:33:04.755Z,97259.25
2022-08-28T19:35:31.631Z,97264.03
2022-08-28T19:37:58.232Z,97266.13
2022-08-28T19:40:24.897Z,97263.63
2022-08-28T19:42:51.912Z,97273.75
2022-08-28T19:45:19.725Z,97268.00
2022-08-28T19:47:47.065Z,97269.44
2022-08-28T19:50:14.860Z,97280.94
2022-08-28T19:52:43.328Z,97275.66
2022-08-28T19:55:18.257Z,97276.38
2022-08-28T19:57:46.800Z,97276.63
2022-08-28T20:00:15.084Z,97282.69
2022-08-28T20:02:41.578Z,97280.72
2022-08-28T20:05:08.819Z,97287.06
2022-08-28T20:07:35.411Z,97288.44
2022-08-28T20:10:02.107Z,97281.75
2022-08-28T20:12:28.798Z,97286.53
2022-08-28T20:14:59.035Z,97291.72
2022-08-28T20:17:29.317Z,97296.38
2022-08-28T20:20:02.434Z,97291.59
2022-08-28T20:22:31.783Z,97289.94
2022-08-28T20:24:58.771Z,97287.84
2022-08-28T20:27:25.876Z,97288.97
2022-08-28T20:29:52.616Z,97282.22
2022-08-28T20:32:19.616Z,97281.00
2022-08-28T20:34:46.156Z,97282.25
2022-08-28T20:37:12.713Z,97290.81
2022-08-28T20:39:41.660Z,97285.75
2022-08-28T20:42:09.780Z,97284.47
2022-08-28T20:44:36.547Z,97293.19
2022-08-28T20:47:03.500Z,97281.00
2022-08-28T20:49:30.104Z,97283.66
2022-08-28T20:51:57.478Z,97282.38
2022-08-28T20:54:33.494Z,97289.69
2022-08-28T20:57:04.388Z,97281.56
2022-08-28T20:59:39.368Z,97285.22
2022-08-28T21:02:19.978Z,97282.56
2022-08-28T21:04:47.814Z,97288.44
2022-08-28T21:07:16.488Z,97284.78
2022-08-28T21:10:05.720Z,97290.97
2022-08-28T21:12:30.344Z,97288.88
2022-08-28T21:14:57.127Z,97292.78
2022-08-28T21:17:29.687Z,97293.78
2022-08-28T21:19:58.924Z,97291.94
2022-08-28T21:22:25.447Z,97286.91
2022-08-28T21:24:51.966Z,97285.66
2022-08-28T21:27:18.780Z,97289.31
2022-08-28T21:29:46.031Z,97295.47
2022-08-28T21:32:13.126Z,97292.09
2022-08-28T21:34:39.820Z,97298.22
2022-08-28T21:37:06.535Z,97293.63
2022-08-28T21:39:33.404Z,97302.56
2022-08-28T21:42:00.087Z,97302.72
2022-08-28T21:44:26.708Z,97302.16
2022-08-28T21:46:53.355Z,97297.94
2022-08-28T21:49:20.409Z,97313.50
2022-08-28T21:51:47.036Z,97312.78
2022-08-28T21:54:13.674Z,97314.91
2022-08-28T21:56:40.372Z,97311.53
2022-08-28T21:59:07.126Z,97320.72
2022-08-28T22:01:34.177Z,97312.84
2022-08-28T22:04:00.924Z,97316.78
2022-08-28T22:06:27.473Z,97321.50
2022-08-28T22:08:55.058Z,97319.84
2022-08-28T22:11:24.891Z,97329.38
2022-08-28T22:13:52.897Z,97320.81
2022-08-28T22:16:20.253Z,97322.91
2022-08-28T22:18:47.144Z,97326.72
2022-08-28T22:21:33.931Z,97327.41
2022-08-28T22:24:01.036Z,97332.75
2022-08-28T22:26:27.687Z,97327.84
2022-08-28T22:28:54.789Z,97336.28
2022-08-28T22:31:21.702Z,97325.78
2022-08-28T22:33:48.887Z,97322.53
2022-08-28T22:36:15.472Z,97330.78
2022-08-28T22:38:42.259Z,97328.28
2022-08-28T22:41:16.285Z,97336.38
2022-08-28T22:43:43.068Z,97335.72
2022-08-28T22:46:09.757Z,97335.88
2022-08-28T22:48:36.368Z,97338.25
2022-08-28T22:51:09.318Z,97334.63
2022-08-28T22:53:36.415Z,97329.59
2022-08-28T22:56:03.687Z,97332.50
2022-08-28T22:58:32.623Z,97333.22
2022-08-28T23:01:05.117Z,97336.31
2022-08-28T23:03:32.071Z,97330.56
2022-08-28T23:05:58.861Z,97333.06
2022-08-28T23:08:25.740Z,97335.88
2022-08-28T23:10:59.753Z,97335.06
2022-08-28T23:13:26.884Z,97333.06
2022-08-28T23:15:53.465Z,97332.81
2022-08-28T23:18:21.100Z,97334.19
2022-08-28T23:20:47.929Z,97329.16
2022-08-28T23:23:18.420Z,97334.34
2022-08-28T23:25:44.967Z,97328.47
2022-08-28T23:28:11.606Z,97326.38
2022-08-28T23:30:39.075Z,97322.66
2022-08-28T23:33:08.401Z,97319.72
2022-08-28T23:35:36.116Z,97326.44
2022-08-28T23:38:03.698Z,97325.16
2022-08-28T23:40:30.634Z,97323.88
2022-08-28T23:42:58.049Z,97317.44
2022-08-28T23:45:26.286Z,97324.16
2022-08-28T23:47:54.094Z,97320.34
2022-08-28T23:50:22.091Z,97315.03
2022-08-28T23:52:49.500Z,97312.59
2022-08-28T23:55:19.226Z,97311.91
2022-08-28T23:57:46.023Z,97316.06
